Time;durP1;ratioP1;P1;durP2;ratioP2;P2;SDS_P1;SDS_P2;PMS_P1;PMS_P2;Temp;Humidity;BMP_temperature;BMP_pressure;BME280_temperature;BME280_humidity;BME280_pressure;Samples;Min_cycle;Max_cycle;Signal;HPM_P1;HPM_P2
2022/10/14 00:01:23;;;;;;;32.90;23.10;;;;;;;17.60;62.26;101414.03;5052641;28;20045;-69
2022/10/14 00:03:56;;;;;;;32.03;23.00;;;;;;;17.61;62.26;101417.59;5053722;28;20060;-70
2022/10/14 00:06:25;;;;;;;39.15;24.90;;;;;;;17.64;62.18;101414.59;5052271;28;20503;-69
2022/10/14 00:08:52;;;;;;;41.45;25.08;;;;;;;17.64;62.29;101420.03;5053793;28;20064;-69
2022/10/14 00:11:21;;;;;;;43.33;25.77;;;;;;;17.63;62.39;101426.47;5053785;28;20037;-69
2022/10/14 00:14:14;;;;;;;37.50;25.45;;;;;;;17.59;62.63;101419.59;5053868;28;20045;-70
2022/10/14 00:16:42;;;;;;;39.92;24.55;;;;;;;17.61;62.38;101414.88;5054246;28;20103;-68
2022/10/14 00:19:10;;;;;;;38.03;23.73;;;;;;;17.59;62.80;101415.03;5054610;28;20037;-68
2022/10/14 00:21:38;;;;;;;32.65;23.10;;;;;;;17.58;62.49;101407.00;5054292;28;20041;-69
2022/10/14 00:24:15;;;;;;;37.20;23.83;;;;;;;17.58;62.74;101415.16;5054709;28;20128;-69
2022/10/14 00:26:42;;;;;;;34.42;22.95;;;;;;;17.61;62.95;101417.59;5052906;28;20045;-68
2022/10/14 00:29:12;;;;;;;30.23;22.20;;;;;;;17.59;62.93;101417.72;5053424;28;20110;-69
2022/10/14 00:31:39;;;;;;;33.05;22.50;;;;;;;17.61;62.75;101415.72;5053233;28;20554;-70
2022/10/14 00:34:14;;;;;;;32.45;21.75;;;;;;;17.60;62.86;101413.16;5053542;28;20459;-69
2022/10/14 00:36:42;;;;;;;35.10;23.88;;;;;;;17.60;62.72;101419.44;5052871;28;20059;-69
2022/10/14 00:39:14;;;;;;;34.70;21.95;;;;;;;17.59;62.95;101425.03;5053252;28;20065;-69
2022/10/14 00:41:40;;;;;;;31.70;21.67;;;;;;;17.59;62.55;101417.72;5053018;28;20037;-69
2022/10/14 00:44:13;;;;;;;29.65;21.88;;;;;;;17.61;62.75;101418.44;5052981;28;20041;-70
2022/10/14 00:46:42;;;;;;;27.15;21.75;;;;;;;17.64;62.72;101415.44;5051864;28;20045;-69
2022/10/14 00:49:10;;;;;;;32.08;22.80;;;;;;;17.66;62.87;101418.03;5051779;28;20322;-70
2022/10/14 00:51:39;;;;;;;38.17;23.38;;;;;;;17.66;62.73;101412.59;5052657;28;20453;-69
2022/10/14 00:54:12;;;;;;;28.05;22.05;;;;;;;17.67;63.06;101409.78;5050611;28;20041;-70
2022/10/14 00:56:40;;;;;;;35.05;22.08;;;;;;;17.67;62.85;101401.63;5052708;28;20053;-69
2022/10/14 00:59:09;;;;;;;31.55;21.15;;;;;;;17.67;62.60;101407.06;5051645;28;20041;-69
2022/10/14 01:01:36;;;;;;;28.75;20.58;;;;;;;17.68;62.93;101400.63;5052516;28;20029;-70
2022/10/14 01:04:05;;;;;;;34.22;22.27;;;;;;;17.70;62.71;101404.06;5051158;28;20340;-70
2022/10/14 01:06:49;;;;;;;29.10;20.95;;;;;;;17.69;62.77;101399.63;5051801;28;20041;-70
2022/10/14 01:09:25;;;;;;;27.92;20.35;;;;;;;17.70;62.85;101400.47;5052762;28;20049;-70
2022/10/14 01:12:08;;;;;;;26.42;20.50;;;;;;;17.71;62.89;101394.91;5052507;28;20407;-70
2022/10/14 01:15:19;;;;;;;28.35;21.13;;;;;;;17.72;62.82;101398.47;5052277;28;20037;-70
2022/10/14 01:18:10;;;;;;;28.27;19.45;;;;;;;17.73;62.79;101390.19;5051166;28;20124;-70
2022/10/14 01:21:08;;;;;;;31.02;20.83;;;;;;;17.73;62.59;101392.91;5052315;28;20064;-70
2022/10/14 01:24:04;;;;;;;28.65;19.45;;;;;;;17.74;62.88;101385.63;5050551;28;20049;-70
2022/10/14 01:26:54;;;;;;;32.03;20.52;;;;;;;17.73;62.87;101387.47;5050736;28;20049;-69
2022/10/14 01:29:53;;;;;;;25.25;19.73;;;;;;;17.73;62.69;101379.31;5034108;28;20041;-69
2022/10/14 01:32:26;;;;;;;26.60;19.05;;;;;;;17.71;62.83;101372.31;5050747;28;20091;-69
2022/10/14 01:35:06;;;;;;;27.40;18.92;;;;;;;17.69;62.65;101368.88;5051986;28;20037;-69
2022/10/14 01:37:38;;;;;;;28.25;18.70;;;;;;;17.68;62.76;101361.75;5050564;28;20048;-69
2022/10/14 01:40:11;;;;;;;24.38;18.98;;;;;;;17.67;63.08;101355.44;5050607;28;20102;-69
2022/10/14 01:42:41;;;;;;;24.08;18.33;;;;;;;17.68;62.72;101351.72;5050445;28;20439;-70
2022/10/14 01:45:31;;;;;;;27.20;18.98;;;;;;;17.68;62.58;101342.72;5050372;28;20036;-70
2022/10/14 01:47:59;;;;;;;24.60;18.17;;;;;;;17.71;62.66;101340.56;5050596;28;20049;-70
2022/10/14 01:50:29;;;;;;;27.77;19.35;;;;;;;17.74;62.63;101334.00;5051950;28;20120;-70
2022/10/14 01:53:07;;;;;;;22.90;18.13;;;;;;;17.72;62.84;101327.84;5050481;28;20076;-69
2022/10/14 01:55:39;;;;;;;22.70;17.30;;;;;;;17.74;62.36;101320.41;5050135;28;20324;-69
2022/10/14 01:58:08;;;;;;;23.70;17.65;;;;;;;17.74;62.64;101317.69;5049782;28;20106;-69
2022/10/14 02:00:34;;;;;;;26.95;17.50;;;;;;;17.74;62.53;101318.56;5050440;28;20450;-70
2022/10/14 02:03:01;;;;;;;24.10;17.73;;;;;;;17.73;62.57;101321.41;5051397;28;20037;-70
2022/10/14 02:05:37;;;;;;;22.88;18.08;;;;;;;17.73;62.41;101318.69;5050106;28;20045;-69
2022/10/14 02:08:38;;;;;;;24.02;17.33;;;;;;;17.70;62.64;101328.00;5051621;28;20044;-69
2022/10/14 02:11:10;;;;;;;22.40;18.00;;;;;;;17.69;62.20;101329.00;5033630;28;20041;-69
2022/10/14 02:14:05;;;;;;;23.80;17.73;;;;;;;17.66;62.63;101331.09;5049340;28;20272;-69
2022/10/14 02:16:38;;;;;;;24.08;17.85;;;;;;;17.68;62.23;101324.56;5047789;28;20045;-70
2022/10/14 02:19:27;;;;;;;24.20;17.10;;;;;;;17.68;62.14;101327.28;5050188;28;20510;-69
2022/10/14 02:22:03;;;;;;;22.67;18.02;;;;;;;17.67;62.63;101322.00;5051154;28;20049;-69
2022/10/14 02:24:40;;;;;;;23.55;18.20;;;;;;;17.65;62.42;101319.38;5051079;28;20382;-70
2022/10/14 02:27:12;;;;;;;20.50;16.73;;;;;;;17.65;62.42;101303.09;5051312;28;20044;-70
2022/10/14 02:29:42;;;;;;;25.70;18.67;;;;;;;17.65;62.35;101308.53;5049869;28;20136;-70
2022/10/14 02:32:11;;;;;;;21.23;17.08;;;;;;;17.62;62.30;101306.09;5050895;28;20101;-70
2022/10/14 02:34:48;;;;;;;25.30;17.38;;;;;;;17.62;62.59;101303.38;5050941;28;20045;-69
2022/10/14 02:37:17;;;;;;;24.13;17.88;;;;;;;17.63;62.59;101313.25;5050986;28;20045;-69
2022/10/14 02:39:50;;;;;;;22.95;16.88;;;;;;;17.64;62.27;101309.53;5051187;28;20048;-70
2022/10/14 02:42:17;;;;;;;24.08;17.00;;;;;;;17.67;62.27;101314.69;5049438;28;20414;-70
2022/10/14 02:44:58;;;;;;;23.30;17.15;;;;;;;17.67;62.38;101319.28;5049540;28;20407;-69
2022/10/14 02:47:25;;;;;;;22.90;18.15;;;;;;;17.69;62.19;101325.41;5051145;28;20041;-69
2022/10/14 02:49:52;;;;;;;25.02;17.88;;;;;;;17.66;62.62;101320.25;5049793;28;20095;-68
2022/10/14 02:52:19;;;;;;;25.73;18.15;;;;;;;17.64;62.43;101314.97;5050128;28;20041;-70
2022/10/14 02:54:47;;;;;;;24.70;17.77;;;;;;;17.64;62.58;101308.66;5051019;28;20041;-69
2022/10/14 02:57:13;;;;;;;21.63;17.25;;;;;;;17.62;62.52;101306.09;5049865;28;20418;-69
2022/10/14 02:59:40;;;;;;;24.85;16.88;;;;;;;17.60;62.72;101316.25;5050958;28;20041;-69
2022/10/14 03:02:07;;;;;;;22.95;16.45;;;;;;;17.58;62.83;101315.53;5050113;28;20118;-69
2022/10/14 03:04:41;;;;;;;24.17;17.13;;;;;;;17.56;62.78;101309.38;5049573;28;20099;-69
2022/10/14 03:07:08;;;;;;;26.23;18.02;;;;;;;17.58;62.93;101306.53;5049293;28;20547;-69
2022/10/14 03:09:41;;;;;;;26.52;17.92;;;;;;;17.60;62.88;101309.94;5049627;28;20506;-69
2022/10/14 03:12:08;;;;;;;23.30;17.08;;;;;;;17.61;62.78;101304.38;5048552;28;20163;-69
2022/10/14 03:14:39;;;;;;;20.77;16.33;;;;;;;17.61;62.83;101298.94;5049674;28;20041;-69
2022/10/14 03:17:08;;;;;;;24.08;17.15;;;;;;;17.61;62.58;101285.38;5051267;28;20041;-70
2022/10/14 03:19:34;;;;;;;24.40;17.33;;;;;;;17.64;62.77;101289.66;5054722;28;20044;-69
2022/10/14 03:22:01;;;;;;;23.33;17.83;;;;;;;17.64;63.08;101276.94;5053979;28;20522;-70
2022/10/14 03:24:33;;;;;;;24.23;17.23;;;;;;;17.65;62.54;101286.78;5053570;28;20155;-70
2022/10/14 03:27:18;;;;;;;23.70;17.02;;;;;;;17.65;62.82;101281.34;5053355;28;20499;-69
2022/10/14 03:29:49;;;;;;;24.10;16.80;;;;;;;17.64;63.04;101273.34;5037126;28;20047;-69
2022/10/14 03:32:20;;;;;;;21.83;16.48;;;;;;;17.65;63.05;101275.06;5052721;28;20051;-69
2022/10/14 03:35:22;;;;;;;22.08;16.42;;;;;;;17.66;62.54;101272.25;5045309;28;20060;-69
2022/10/14 03:37:54;;;;;;;22.08;16.33;;;;;;;17.64;62.82;101267.91;5053083;28;20051;-68
2022/10/14 03:40:27;;;;;;;21.77;16.05;;;;;;;17.64;62.81;101268.78;5052446;28;20033;-69
2022/10/14 03:42:56;;;;;;;24.63;15.68;;;;;;;17.65;62.66;101272.34;5054114;28;20040;-69
2022/10/14 03:45:27;;;;;;;18.45;15.32;;;;;;;17.66;62.99;101274.97;5052938;28;20107;-69
2022/10/14 03:47:55;;;;;;;21.85;16.30;;;;;;;17.67;62.78;101264.94;5052998;28;20045;-69
2022/10/14 03:50:21;;;;;;;21.95;16.13;;;;;;;17.66;62.48;101261.38;5053697;28;20044;-69
2022/10/14 03:52:51;;;;;;;21.00;16.50;;;;;;;17.64;62.97;101252.47;5052580;28;20037;-68
2022/10/14 03:55:28;;;;;;;23.15;16.20;;;;;;;17.66;62.95;101257.78;5037622;28;20033;-69
2022/10/14 03:57:55;;;;;;;21.90;15.68;;;;;;;17.65;62.95;101247.91;5052799;28;20438;-69
2022/10/14 04:00:22;;;;;;;22.08;16.05;;;;;;;17.65;62.98;101256.06;5053790;28;20041;-69
2022/10/14 04:03:00;;;;;;;20.52;15.82;;;;;;;17.64;62.91;101257.06;5052483;28;20392;-68
2022/10/14 04:05:35;;;;;;;21.63;16.05;;;;;;;17.63;62.52;101249.91;5053940;28;20041;-69
2022/10/14 04:08:08;;;;;;;23.02;16.38;;;;;;;17.63;62.73;101252.63;5053958;28;20057;-68
2022/10/14 04:10:38;;;;;;;19.42;14.75;;;;;;;17.65;62.90;101251.47;5051919;28;20452;-69
2022/10/14 04:13:07;;;;;;;19.95;14.38;;;;;;;17.67;62.90;101243.22;5052224;28;20040;-69
2022/10/14 04:15:39;;;;;;;20.33;14.32;;;;;;;17.69;62.72;101243.94;5052727;28;20037;-69
2022/10/14 04:18:33;;;;;;;21.40;15.40;;;;;;;17.71;62.79;101241.94;5051629;28;20106;-68
2022/10/14 04:21:05;;;;;;;17.85;14.68;;;;;;;17.72;62.93;101235.50;5052334;28;20053;-68
2022/10/14 04:23:33;;;;;;;19.67;15.60;;;;;;;17.73;62.41;101234.50;5051984;28;20502;-68
2022/10/14 04:26:10;;;;;;;17.52;14.00;;;;;;;17.73;62.86;101232.63;5037417;28;20623;-68
2022/10/14 04:28:38;;;;;;;19.13;15.02;;;;;;;17.72;62.85;101214.63;5050668;28;20379;-69
2022/10/14 04:31:11;;;;;;;18.98;15.00;;;;;;;17.71;62.96;101228.34;5052102;28;20434;-69
2022/10/14 04:33:49;;;;;;;21.20;15.05;;;;;;;17.69;62.94;101217.63;5052055;28;20314;-69
2022/10/14 04:36:15;;;;;;;21.48;15.35;;;;;;;17.68;62.83;101224.06;5052942;28;20055;-68
2022/10/14 04:38:42;;;;;;;25.85;16.75;;;;;;;17.67;62.78;101221.50;5053106;28;20044;-69
2022/10/14 04:41:10;;;;;;;23.23;16.08;;;;;;;17.64;62.90;101217.16;5051793;28;20124;-68
2022/10/14 04:43:42;;;;;;;22.15;16.23;;;;;;;17.64;63.12;101227.19;5052998;28;20040;-68
2022/10/14 04:46:36;;;;;;;20.35;15.90;;;;;;;17.63;63.19;101206.44;5017278;28;20133;-68
2022/10/14 04:49:03;;;;;;;24.45;16.33;;;;;;;17.62;63.24;101213.75;5046974;28;20099;-68
2022/10/14 04:51:37;;;;;;;21.10;16.38;;;;;;;17.64;63.46;101216.31;5051540;28;20041;-68
2022/10/14 04:54:27;;;;;;;24.25;16.65;;;;;;;17.63;63.07;101214.59;5053334;28;20051;-68
2022/10/14 04:56:56;;;;;;;21.45;17.20;;;;;;;17.63;63.36;101204.59;5051191;28;20080;-68
2022/10/14 04:59:23;;;;;;;23.90;16.70;;;;;;;17.61;62.87;101214.75;5051662;28;20041;-69
2022/10/14 05:01:59;;;;;;;22.48;17.08;;;;;;;17.62;63.06;101215.59;5051487;28;20041;-69
2022/10/14 05:04:37;;;;;;;23.80;17.17;;;;;;;17.64;63.06;101211.75;5051678;28;20067;-68
2022/10/14 05:07:05;;;;;;;22.55;17.02;;;;;;;17.64;63.46;101206.31;5051234;28;20055;-68
2022/10/14 05:09:32;;;;;;;25.17;16.58;;;;;;;17.64;63.08;101208.16;5051446;28;20052;-69
2022/10/14 05:11:59;;;;;;;25.00;17.45;;;;;;;17.64;63.30;101202.72;5050983;28;20037;-68
2022/10/14 05:14:36;;;;;;;22.55;16.27;;;;;;;17.65;63.28;101201.72;5050868;28;20044;-68
2022/10/14 05:17:13;;;;;;;20.73;15.68;;;;;;;17.64;63.43;101197.31;5035944;28;20045;-69
2022/10/14 05:19:39;;;;;;;22.08;17.33;;;;;;;17.64;63.44;101192.72;5051325;28;20037;-70
2022/10/14 05:22:06;;;;;;;22.13;16.65;;;;;;;17.65;63.71;101174.56;5050993;28;20049;-68
2022/10/14 05:24:39;;;;;;;23.38;17.38;;;;;;;17.66;63.51;101171.75;5031465;28;20395;-68
2022/10/14 05:27:06;;;;;;;23.65;17.35;;;;;;;17.68;63.56;101177.03;5050314;28;20037;-68
2022/10/14 05:29:33;;;;;;;26.67;17.08;;;;;;;17.68;63.79;101171.59;5052232;28;20095;-68
2022/10/14 05:32:01;;;;;;;26.10;17.27;;;;;;;17.69;63.74;101176.88;5050689;28;20049;-69
2022/10/14 05:34:36;;;;;;;25.67;17.30;;;;;;;17.72;63.31;101170.28;5052149;28;20553;-69
2022/10/14 05:37:06;;;;;;;25.10;17.27;;;;;;;17.72;63.84;101157.56;5050761;28;20033;-69
2022/10/14 05:39:40;;;;;;;21.40;16.05;;;;;;;17.73;63.47;101167.44;5050792;28;20128;-68
2022/10/14 05:42:06;;;;;;;23.90;17.17;;;;;;;17.73;63.45;101164.72;5050062;28;20043;-68
2022/10/14 05:44:37;;;;;;;23.60;17.05;;;;;;;17.74;63.75;101165.56;5050754;28;20531;-68
2022/10/14 05:47:03;;;;;;;25.27;16.75;;;;;;;17.74;63.75;101165.56;5051959;28;20049;-68
2022/10/14 05:49:30;;;;;;;26.48;17.27;;;;;;;17.73;63.62;101155.72;5050680;28;20044;-69
2022/10/14 05:51:59;;;;;;;21.88;16.40;;;;;;;17.72;63.65;101145.84;5050069;28;20115;-69
2022/10/14 05:54:33;;;;;;;23.95;16.48;;;;;;;17.70;63.50;101137.84;5050643;28;20537;-68
2022/10/14 05:57:02;;;;;;;22.35;16.92;;;;;;;17.70;63.65;101143.28;5050461;28;20353;-68
2022/10/14 05:59:29;;;;;;;24.45;15.55;;;;;;;17.69;63.89;101138.84;5050596;28;20041;-68
2022/10/14 06:01:56;;;;;;;21.27;16.50;;;;;;;17.70;64.20;101137.00;5049697;28;20107;-69
2022/10/14 06:04:25;;;;;;;19.65;16.00;;;;;;;17.71;63.94;101135.97;5050803;28;20418;-68
2022/10/14 06:06:51;;;;;;;20.83;16.23;;;;;;;17.70;64.06;101129.69;5050005;28;20064;-68
2022/10/14 06:09:18;;;;;;;23.48;15.40;;;;;;;17.69;64.06;101130.69;5051658;28;20487;-68
2022/10/14 06:11:45;;;;;;;20.50;16.45;;;;;;;17.71;63.93;101131.41;5049735;28;20041;-68
2022/10/14 06:14:15;;;;;;;20.25;16.02;;;;;;;17.74;64.43;101130.25;5051679;28;20056;-69
2022/10/14 06:16:41;;;;;;;19.05;15.88;;;;;;;17.77;64.02;101133.53;5049698;28;20044;-68
2022/10/14 06:19:08;;;;;;;19.38;15.15;;;;;;;17.81;64.14;101133.22;5050068;28;20495;-68
2022/10/14 06:21:35;;;;;;;21.42;14.98;;;;;;;17.81;63.97;101134.09;5049457;28;20033;-68
2022/10/14 06:24:06;;;;;;;20.20;15.75;;;;;;;17.81;64.38;101125.94;5051509;28;20045;-69
2022/10/14 06:26:33;;;;;;;19.60;15.68;;;;;;;17.83;64.31;101132.09;5051327;28;20036;-68
2022/10/14 06:28:59;;;;;;;20.80;15.32;;;;;;;17.83;64.46;101132.09;5050133;28;20045;-69
2022/10/14 06:31:26;;;;;;;19.77;15.63;;;;;;;17.83;64.10;101131.22;5050624;28;20043;-68
2022/10/14 06:34:05;;;;;;;21.38;15.40;;;;;;;17.83;64.15;101126.66;5051522;28;20111;-68
2022/10/14 06:36:33;;;;;;;17.40;14.48;;;;;;;17.84;64.13;101132.97;5051054;28;20110;-68
2022/10/14 06:39:00;;;;;;;18.17;13.20;;;;;;;17.85;64.24;101123.81;5051097;28;20336;-68
2022/10/14 06:41:26;;;;;;;20.95;14.88;;;;;;;17.84;64.59;101127.53;5050725;28;20036;-68
2022/10/14 06:43:54;;;;;;;18.48;14.13;;;;;;;17.84;64.52;101117.53;5050931;28;20049;-69
2022/10/14 06:46:21;;;;;;;17.75;14.18;;;;;;;17.84;64.56;101120.25;5051179;28;20087;-68
2022/10/14 06:48:47;;;;;;;15.93;13.10;;;;;;;17.86;64.56;101129.09;5051091;28;20049;-68
2022/10/14 06:51:16;;;;;;;16.45;12.75;;;;;;;17.87;64.63;101127.25;5049965;28;20041;-68
2022/10/14 06:53:43;;;;;;;16.98;13.35;;;;;;;17.88;64.49;101113.50;5050750;28;20104;-68
2022/10/14 06:56:10;;;;;;;17.95;13.20;;;;;;;17.89;64.58;101115.22;5050964;28;20071;-69
2022/10/14 06:58:37;;;;;;;17.50;12.02;;;;;;;17.87;64.67;101100.91;5049714;28;20045;-69
2022/10/14 07:01:05;;;;;;;15.90;12.55;;;;;;;17.86;64.60;101115.50;5050489;28;20094;-69
2022/10/14 07:03:37;;;;;;;14.13;11.85;;;;;;;17.85;64.55;101108.38;5049494;28;20041;-69
2022/10/14 07:06:05;;;;;;;15.18;11.50;;;;;;;17.86;64.56;101103.78;5049532;28;20048;-70
2022/10/14 07:08:32;;;;;;;14.55;12.50;;;;;;;17.85;64.52;101102.94;5050969;28;20038;-69
2022/10/14 07:10:58;;;;;;;15.90;12.48;;;;;;;17.86;64.67;101103.78;5050331;28;20053;-69
2022/10/14 07:13:25;;;;;;;13.32;11.88;;;;;;;17.88;64.90;101101.78;5050495;28;20032;-69
2022/10/14 07:15:52;;;;;;;14.85;12.25;;;;;;;17.89;65.11;101101.63;5050765;28;20060;-69
2022/10/14 07:18:18;;;;;;;13.88;12.13;;;;;;;17.90;64.63;101102.47;5050608;28;20049;-69
2022/10/14 07:20:45;;;;;;;13.82;11.98;;;;;;;17.94;65.11;101106.63;5050398;28;20406;-69
2022/10/14 07:23:12;;;;;;;16.48;12.32;;;;;;;17.97;64.93;101111.75;5050355;28;20103;-73
2022/10/14 07:25:40;;;;;;;13.88;11.93;;;;;;;17.97;65.08;101101.72;5050847;28;20056;-68
2022/10/14 07:28:06;;;;;;;13.77;10.85;;;;;;;18.00;64.70;101103.28;5050330;28;20477;-68
2022/10/14 07:30:33;;;;;;;12.85;11.13;;;;;;;18.02;64.69;101106.72;5048871;28;20041;-67
2022/10/14 07:33:00;;;;;;;14.55;10.88;;;;;;;18.04;64.87;101102.84;5049925;28;20499;-67
2022/10/14 07:35:31;;;;;;;12.60;10.98;;;;;;;18.06;64.86;101097.25;5050718;28;20483;-67
2022/10/14 07:37:58;;;;;;;13.18;11.00;;;;;;;18.10;64.82;101104.09;5051044;28;20041;-67
2022/10/14 07:40:25;;;;;;;12.00;10.45;;;;;;;18.11;64.87;101103.09;5050262;28;20255;-75
2022/10/14 07:42:51;;;;;;;12.52;9.70;;;;;;;18.13;65.00;101102.94;5050434;28;20044;-70
2022/10/14 07:45:20;;;;;;;11.20;9.10;;;;;;;18.11;65.21;101097.66;5050564;28;20097;-70
2022/10/14 07:47:48;;;;;;;12.40;9.88;;;;;;;18.14;65.17;101108.22;5050642;28;20048;-70
2022/10/14 07:50:15;;;;;;;12.70;8.43;;;;;;;18.14;65.10;101100.06;5050950;28;20471;-70
2022/10/14 07:52:41;;;;;;;9.73;8.27;;;;;;;18.15;65.08;101100.91;5050208;28;20037;-70
2022/10/14 07:55:08;;;;;;;9.43;7.97;;;;;;;18.17;64.95;101099.75;5050420;28;20057;-70
2022/10/14 07:57:34;;;;;;;9.32;8.38;;;;;;;18.17;65.32;101094.31;5050491;28;20045;-70
2022/10/14 08:00:02;;;;;;;11.60;8.68;;;;;;;18.17;65.38;101086.16;5050364;28;20455;-70
2022/10/14 08:02:37;;;;;;;9.43;8.40;;;;;;;18.19;65.23;101089.59;5051319;28;20045;-70
2022/10/14 08:05:05;;;;;;;9.93;8.30;;;;;;;18.22;65.45;101091.16;5053985;28;20055;-70
2022/10/14 08:07:52;;;;;;;14.82;8.90;;;;;;;18.25;65.06;101082.69;5054020;28;20499;-69
2022/10/14 08:10:18;;;;;;;11.35;8.82;;;;;;;18.27;65.22;101083.41;5053916;28;20468;-69
2022/10/14 08:12:45;;;;;;;9.52;8.15;;;;;;;18.29;65.47;101082.22;5053039;28;20045;-70
2022/10/14 08:15:15;;;;;;;9.02;7.63;;;;;;;18.31;65.37;101085.66;5053923;28;20037;-70
2022/10/14 08:17:41;;;;;;;11.13;8.73;;;;;;;18.34;65.44;101089.94;5053693;28;20045;-70
2022/10/14 08:20:08;;;;;;;8.48;7.68;;;;;;;18.37;65.21;101089.63;5053747;28;20037;-69
2022/10/14 08:22:35;;;;;;;11.63;8.45;;;;;;;18.40;65.36;101075.72;5053329;28;20041;-74
2022/10/14 08:25:03;;;;;;;10.07;7.55;;;;;;;18.42;65.34;101080.00;5053503;28;20557;-72
2022/10/14 08:27:29;;;;;;;9.15;7.40;;;;;;;18.46;65.27;101075.09;5048750;28;20143;-72
2022/10/14 08:29:56;;;;;;;8.35;7.38;;;;;;;18.48;64.98;101077.66;5052359;28;20057;-72
2022/10/14 08:32:23;;;;;;;8.15;7.22;;;;;;;18.50;65.14;101076.50;5053189;28;20044;-72
2022/10/14 08:34:50;;;;;;;8.07;7.28;;;;;;;18.54;65.22;101072.47;5053613;28;20041;-72
2022/10/14 08:37:16;;;;;;;8.35;7.40;;;;;;;18.56;65.34;101075.03;5052146;28;20449;-72
2022/10/14 08:39:43;;;;;;;8.65;7.45;;;;;;;18.58;65.25;101064.84;5052876;28;20445;-72
2022/10/14 08:42:32;;;;;;;8.30;7.25;;;;;;;18.60;65.29;101068.28;5053469;28;20502;-71
2022/10/14 08:45:14;;;;;;;8.00;7.20;;;;;;;18.64;65.41;101067.00;5053168;28;20487;-71
2022/10/14 08:47:44;;;;;;;7.57;6.82;;;;;;;18.68;65.16;101073.84;5051839;28;20052;-72
2022/10/14 08:50:30;;;;;;;8.65;7.75;;;;;;;18.73;65.37;101068.78;5052788;28;20048;-70
2022/10/14 08:53:21;;;;;;;8.32;7.43;;;;;;;18.78;65.21;101060.16;5051520;28;20491;-72
2022/10/14 08:55:55;;;;;;;8.15;7.35;;;;;;;18.82;65.27;101064.28;5053183;28;20045;-72
2022/10/14 08:58:37;;;;;;;9.07;7.28;;;;;;;18.84;65.22;101065.81;5052610;28;20041;-72
2022/10/14 09:01:09;;;;;;;9.27;7.53;;;;;;;18.83;65.00;101069.56;5052770;28;20048;-72
2022/10/14 09:03:40;;;;;;;8.60;7.18;;;;;;;18.85;65.07;101070.25;5052379;28;20041;-73
2022/10/14 09:06:17;;;;;;;9.23;7.30;;;;;;;18.87;65.21;101062.78;5051498;28;20131;-72
2022/10/14 09:08:47;;;;;;;7.35;6.55;;;;;;;18.91;65.00;101063.31;5052215;28;20033;-71
2022/10/14 09:11:17;;;;;;;7.18;6.45;;;;;;;18.92;64.86;101057.72;5050617;28;20098;-72
2022/10/14 09:14:05;;;;;;;8.02;6.72;;;;;;;18.94;65.24;101069.31;5050578;28;20483;-72
2022/10/14 09:16:36;;;;;;;8.32;7.25;;;;;;;18.98;64.79;101069.84;5052627;28;20048;-72
2022/10/14 09:19:08;;;;;;;8.63;7.13;;;;;;;19.01;65.00;101069.53;5052320;28;20099;-72
2022/10/14 09:21:37;;;;;;;7.88;7.07;;;;;;;19.05;65.18;101060.88;5050447;28;20388;-73
2022/10/14 09:24:26;;;;;;;8.90;7.00;;;;;;;19.10;65.04;101063.13;5044741;28;20037;-72
2022/10/14 09:26:59;;;;;;;7.10;6.37;;;;;;;19.12;64.83;101052.94;5052284;28;20044;-71
2022/10/14 09:29:29;;;;;;;7.95;6.32;;;;;;;19.16;64.91;101050.75;5052361;28;20327;-71
2022/10/14 09:32:00;;;;;;;8.85;7.25;;;;;;;19.18;65.04;101049.59;5049977;28;20049;-71
2022/10/14 09:34:33;;;;;;;8.65;7.13;;;;;;;19.24;64.82;101050.81;5051391;28;20045;-71
2022/10/14 09:37:19;;;;;;;8.07;7.03;;;;;;;19.30;65.06;101050.16;5051669;28;20065;-72
2022/10/14 09:39:48;;;;;;;6.65;6.05;;;;;;;19.34;64.87;101044.28;5052214;28;20076;-72
2022/10/14 09:42:21;;;;;;;9.75;6.75;;;;;;;19.38;64.90;101042.06;5050934;28;20029;-72
2022/10/14 09:45:13;;;;;;;7.70;5.75;;;;;;;19.40;64.82;101034.59;5051869;28;20344;-72
2022/10/14 09:47:54;;;;;;;7.68;6.78;;;;;;;19.43;64.57;101030.69;5050505;28;20393;-71
2022/10/14 09:50:31;;;;;;;6.28;5.68;;;;;;;19.46;64.61;101041.28;5050627;28;20040;-71
2022/10/14 09:53:04;;;;;;;7.35;5.80;;;;;;;19.46;64.49;101036.69;5051066;28;20041;-71
2022/10/14 09:55:45;;;;;;;6.57;5.97;;;;;;;19.50;64.76;101034.47;5031691;28;20064;-70
2022/10/14 09:58:16;;;;;;;6.18;5.57;;;;;;;19.50;64.38;101029.88;5031439;28;20053;-71
2022/10/14 10:00:45;;;;;;;7.60;5.88;;;;;;;19.53;64.70;101032.31;5031797;28;20048;-71
2022/10/14 10:03:31;;;;;;;7.53;5.57;;;;;;;19.52;64.50;101027.88;5031956;28;20095;-71
2022/10/14 10:06:07;;;;;;;7.50;6.05;;;;;;;19.53;64.53;101029.59;5051307;28;20041;-71
2022/10/14 10:08:52;;;;;;;6.82;5.85;;;;;;;19.54;64.58;101028.59;5051064;28;20053;-71
2022/10/14 10:11:27;;;;;;;6.07;5.47;;;;;;;19.59;64.65;101030.81;5050354;28;20450;-74
2022/10/14 10:14:17;;;;;;;6.85;5.93;;;;;;;19.61;64.59;101034.22;5049721;28;20052;-75
2022/10/14 10:16:44;;;;;;;6.68;5.47;;;;;;;19.65;64.41;101030.16;5033152;28;20045;-73
2022/10/14 10:19:35;;;;;;;7.93;6.00;;;;;;;19.65;64.27;101027.44;5051308;28;20044;-74
2022/10/14 10:22:23;;;;;;;7.10;6.40;;;;;;;19.70;64.57;101025.06;5049610;28;20128;-73
2022/10/14 10:25:13;;;;;;;8.73;6.20;;;;;;;19.74;64.56;101020.16;5051233;28;20044;-74
2022/10/14 10:27:44;;;;;;;9.68;6.32;;;;;;;19.75;64.36;101019.13;5049377;28;20080;-73
2022/10/14 10:30:17;;;;;;;6.68;6.07;;;;;;;19.77;64.59;101022.53;5050693;28;20045;-74
2022/10/14 10:32:53;;;;;;;6.28;5.53;;;;;;;19.77;64.57;101008.91;5049471;28;20049;-74
2022/10/14 10:35:56;;;;;;;6.72;6.05;;;;;;;19.77;64.36;101007.06;5050827;28;20048;-73
2022/10/14 10:38:36;;;;;;;8.60;6.10;;;;;;;19.80;64.46;101006.72;5051020;28;20067;-74
2022/10/14 10:41:18;;;;;;;6.45;5.85;;;;;;;19.81;64.55;101005.69;5050657;28;20049;-75
2022/10/14 10:44:17;;;;;;;9.00;5.95;;;;;;;19.83;64.19;100997.38;5050610;28;20036;-74
2022/10/14 10:47:02;;;;;;;7.90;6.15;;;;;;;19.82;64.21;100995.66;5041660;28;20127;-74
2022/10/14 10:49:29;;;;;;;8.68;6.32;;;;;;;19.82;64.10;100995.66;5049326;28;20076;-75
2022/10/14 10:52:07;;;;;;;6.43;5.82;;;;;;;19.81;64.22;100994.81;5050063;28;20052;-75
2022/10/14 10:55:01;;;;;;;10.10;5.93;;;;;;;19.81;64.36;100977.59;5050909;28;20041;-75
2022/10/14 10:57:56;;;;;;;7.00;6.25;;;;;;;19.80;64.10;100986.78;5049482;28;20549;-74
2022/10/14 11:00:23;;;;;;;8.73;5.90;;;;;;;19.77;63.99;100987.97;5049934;28;20053;-74
2022/10/14 11:03:12;;;;;;;6.93;6.22;;;;;;;19.77;64.27;100989.84;5050565;28;20044;-74
2022/10/14 11:06:13;;;;;;;7.35;5.57;;;;;;;19.72;64.16;100984.03;5050540;28;20089;-75
2022/10/14 11:12:13;;;;;;;6.72;5.88;;;;;;;19.72;64.00;100971.25;5050280;28;20098;-75
2022/10/14 11:15:30;;;;;;;8.35;6.10;;;;;;;19.70;64.32;100976.03;5049200;28;20045;-74
2022/10/14 11:18:00;;;;;;;7.00;6.30;;;;;;;19.72;64.16;100959.50;5008039;28;20048;-74
2022/10/14 11:20:41;;;;;;;8.63;6.60;;;;;;;19.72;64.53;100954.06;4992179;28;20131;-76
2022/10/14 11:23:33;;;;;;;10.38;6.90;;;;;;;19.75;64.36;100956.47;5021266;28;20045;-74
2022/10/14 11:26:27;;;;;;;8.88;6.63;;;;;;;19.73;64.35;100953.91;5042128;28;20085;-74
2022/10/14 11:29:12;;;;;;;6.55;5.90;;;;;;;19.75;64.29;100959.19;5050562;28;20041;-74
2022/10/14 11:31:56;;;;;;;7.78;6.03;;;;;;;19.76;64.34;100959.03;5050047;28;20052;-76
2022/10/14 11:34:55;;;;;;;7.65;5.82;;;;;;;19.78;64.63;100956.97;5049469;28;20036;-74
2022/10/14 11:37:40;;;;;;;9.10;5.57;;;;;;;19.80;64.38;100957.66;5031107;28;20072;-74
2022/10/14 11:40:17;;;;;;;6.82;5.60;;;;;;;19.80;64.69;100946.75;5033030;28;20495;-73
2022/10/14 11:42:54;;;;;;;5.57;5.07;;;;;;;19.83;64.53;100953.75;5033866;28;20104;-74
2022/10/14 11:45:45;;;;;;;5.13;4.32;;;;;;;19.82;64.67;100950.19;5053903;28;20069;-75
2022/10/14 11:48:15;;;;;;;5.68;4.63;;;;;;;19.83;64.44;100948.31;5036032;28;20098;-75